Wormley Airport

Jump to: basic info | weather | runways | comments

Related pages: nearby airports | nearby navaids | notams | map

Basic information (top)

Codes: 85LL
Location: lon 41.683899, lat -88.262299, elev 680 ft / 207 m msl
Status: small_airport

Weather (top)

Current conditions for Lewis University Airport 9nm (16km) ESE (rec'd 2014/11/27 12:35Z):

KLOT 271235Z AUTO 29008KT 5SM BR BKN012 OVC050 M05/M07 A3029

Airport forecast for Dupage Airport 13nm (25km) N (rec'd 2014/11/27 12:39Z):

TAF KDPA 271138Z 2712/2812 32009KT 6SM BR VCSH BKN045 OVC080 
     FM271500 31011G16KT P6SM BKN018 BKN045 
     FM271900 31012G18KT P6SM SCT025 BKN035 
     FM272100 31011G15KT P6SM SCT035 
     FM280100 VRB03KT P6SM SCT250 
     FM280900 19004KT P6SM BKN100

Runways (top)

N/S: 2,300 x 100 ft (701 x 30 m) — grass — not lighted

Latest comments (top)

No comments yet for Wormley Airport

More... (top)

See also NOTAMs and nearby airports and navaids, or visit the Wormley Airport page at the main OurAirports website..